Time;durP1;ratioP1;P1;durP2;ratioP2;P2;SDS_P1;SDS_P2;PMS_P1;PMS_P2;Temp;Humidity;BMP_temperature;BMP_pressure;BME280_temperature;BME280_humidity;BME280_pressure;Samples;Min_cycle;Max_cycle;Signal;HPM_P1;HPM_P2
2022/10/29 00:02:04;;;;;;;11.28;7.45;;;;;;;11.39;89.11;99323.34;1712412;83;25666;-64
2022/10/29 00:04:30;;;;;;;8.35;5.58;;;;;;;11.39;89.34;99325.26;1712088;83;25782;-64
2022/10/29 00:06:56;;;;;;;12.13;7.90;;;;;;;11.35;89.49;99320.95;1712231;83;25449;-64
2022/10/29 00:09:22;;;;;;;11.48;7.03;;;;;;;11.35;89.28;99323.70;1712110;83;29617;-64
2022/10/29 00:11:49;;;;;;;11.55;7.85;;;;;;;11.32;89.47;99325.67;1711983;83;25437;-64
2022/10/29 00:14:16;;;;;;;10.03;7.37;;;;;;;11.31;89.26;99322.66;1712388;83;25701;-64
2022/10/29 00:16:42;;;;;;;10.25;6.85;;;;;;;11.29;89.21;99327.06;1712441;83;25711;-64
2022/10/29 00:19:09;;;;;;;14.33;7.60;;;;;;;11.26;89.65;99326.30;1712347;83;25443;-64
2022/10/29 00:21:36;;;;;;;12.03;6.97;;;;;;;11.26;89.40;99322.77;1711924;83;27447;-64
2022/10/29 00:24:05;;;;;;;12.68;7.80;;;;;;;11.27;89.36;99327.95;1712421;83;25694;-64
2022/10/29 00:26:32;;;;;;;11.57;8.05;;;;;;;11.26;89.20;99327.67;1712088;83;25493;-64
2022/10/29 00:28:59;;;;;;;10.53;7.60;;;;;;;11.26;89.19;99331.79;1712086;83;26964;-64
2022/10/29 00:31:26;;;;;;;14.65;7.67;;;;;;;11.27;89.29;99328.50;1712146;83;25734;-64
2022/10/29 00:33:54;;;;;;;10.30;7.05;;;;;;;11.25;89.37;99326.59;1712062;83;27566;-64
2022/10/29 00:36:25;;;;;;;11.05;6.50;;;;;;;11.23;89.31;99324.73;1711942;83;25496;-64
2022/10/29 00:38:52;;;;;;;10.05;6.80;;;;;;;11.20;89.63;99327.50;1712629;83;25594;-64
2022/10/29 00:41:24;;;;;;;14.33;8.10;;;;;;;11.20;89.61;99318.48;1711978;83;25715;-64
2022/10/29 00:44:13;;;;;;;11.40;6.97;;;;;;;11.20;89.23;99317.11;1712125;83;25641;-64
2022/10/29 00:46:45;;;;;;;11.63;7.33;;;;;;;11.20;89.27;99315.16;1693708;83;27621;-64
2022/10/29 00:49:11;;;;;;;8.00;5.83;;;;;;;11.21;89.23;99320.09;1685561;85;25610;-64
2022/10/29 00:51:38;;;;;;;9.28;6.60;;;;;;;11.19;89.54;99316.86;1685542;85;25499;-64
2022/10/29 00:54:11;;;;;;;9.48;6.42;;;;;;;11.19;89.34;99316.86;1685581;85;25732;-64
2022/10/29 00:56:42;;;;;;;9.80;6.53;;;;;;;11.20;89.30;99306.13;1685710;83;25614;-64
2022/10/29 00:59:10;;;;;;;10.40;6.25;;;;;;;11.20;89.02;99300.65;1685981;85;27011;-64
2022/10/29 01:01:37;;;;;;;12.53;6.62;;;;;;;11.20;89.17;99307.50;1685848;85;25981;-64
2022/10/29 01:04:04;;;;;;;9.13;6.22;;;;;;;11.18;88.84;99311.92;1685533;85;25421;-64
2022/10/29 01:06:33;;;;;;;10.85;6.60;;;;;;;11.14;89.17;99308.16;1685745;83;25736;-64
2022/10/29 01:08:59;;;;;;;9.48;5.90;;;;;;;11.13;89.31;99303.22;1685768;85;25498;-64
2022/10/29 01:11:49;;;;;;;10.68;6.00;;;;;;;11.13;89.32;99307.34;1685591;85;27438;-64
2022/10/29 01:14:29;;;;;;;10.68;5.67;;;;;;;11.13;89.33;99311.45;1686261;83;25884;-64
2022/10/29 01:17:04;;;;;;;9.33;6.03;;;;;;;11.12;89.18;99304.90;1684774;85;25474;-64
2022/10/29 01:20:14;;;;;;;8.20;5.15;;;;;;;11.08;89.55;99296.45;1686090;85;26247;-63
2022/10/29 01:23:17;;;;;;;9.03;5.50;;;;;;;11.09;89.45;99296.72;1685744;83;25490;-63
2022/10/29 01:26:04;;;;;;;8.08;5.65;;;;;;;11.11;89.23;99297.80;1685638;85;27397;-63
2022/10/29 01:29:14;;;;;;;8.73;5.50;;;;;;;11.06;89.47;99288.27;1685587;85;25819;-63
2022/10/29 01:31:58;;;;;;;11.10;6.28;;;;;;;11.06;89.35;99291.84;1685709;85;25890;-63
2022/10/29 01:34:57;;;;;;;7.72;4.92;;;;;;;11.05;89.44;99283.33;1685995;85;26161;-63
2022/10/29 01:37:47;;;;;;;9.35;6.30;;;;;;;11.03;89.78;99284.21;1685753;85;25669;-63
2022/10/29 01:40:22;;;;;;;8.20;5.13;;;;;;;11.02;89.60;99282.56;1685601;85;27364;-63
2022/10/29 01:43:14;;;;;;;10.43;5.83;;;;;;;11.01;89.83;99283.69;1685537;85;25638;-64
2022/10/29 01:46:10;;;;;;;7.40;5.10;;;;;;;10.98;89.75;99279.63;1685612;83;25749;-63
2022/10/29 01:48:51;;;;;;;9.45;5.30;;;;;;;10.99;89.66;99273.56;1685734;85;25980;-64
2022/10/29 01:51:24;;;;;;;10.00;5.78;;;;;;;10.98;89.85;99271.95;1686296;85;25468;-64
2022/10/29 01:53:55;;;;;;;8.73;5.58;;;;;;;10.97;89.68;99271.70;1687708;83;27358;-64
2022/10/29 01:56:30;;;;;;;8.13;5.65;;;;;;;10.97;89.55;99265.64;1685821;83;25654;-64
2022/10/29 01:59:00;;;;;;;8.78;5.78;;;;;;;10.96;89.64;99266.77;1685580;85;25619;-64
2022/10/29 02:02:08;;;;;;;9.23;5.83;;;;;;;10.93;89.83;99282.45;1685912;83;25775;-64
2022/10/29 02:04:48;;;;;;;9.05;5.67;;;;;;;10.94;89.87;99274.47;1685413;85;25634;-64
2022/10/29 02:07:45;;;;;;;9.55;6.30;;;;;;;10.94;89.57;99277.20;1661964;85;27642;-64
2022/10/29 02:10:21;;;;;;;9.60;5.87;;;;;;;10.93;89.67;99276.96;1684940;85;25496;-64
2022/10/29 02:12:52;;;;;;;7.15;4.97;;;;;;;10.94;89.61;99288.18;1685745;83;25682;-64
2022/10/29 02:15:38;;;;;;;9.15;6.05;;;;;;;10.93;89.75;99280.28;1685646;85;31386;-64
2022/10/29 02:18:07;;;;;;;9.23;5.87;;;;;;;10.94;89.53;99275.84;1685873;85;25587;-64
2022/10/29 02:20:34;;;;;;;10.50;5.92;;;;;;;10.94;89.43;99272.30;1686178;85;26976;-64
2022/10/29 02:23:00;;;;;;;11.88;6.47;;;;;;;10.93;89.61;99270.11;1685456;85;25425;-64
2022/10/29 02:25:28;;;;;;;9.83;6.17;;;;;;;10.94;89.44;99273.67;1686174;85;25582;-64
2022/10/29 02:27:54;;;;;;;8.40;5.87;;;;;;;10.92;89.61;99276.72;1685444;85;27759;-64
2022/10/29 02:30:21;;;;;;;8.58;5.12;;;;;;;10.94;89.85;99270.36;1685601;85;25472;-64
2022/10/29 02:32:47;;;;;;;8.48;5.45;;;;;;;10.95;89.67;99262.95;1685791;85;27426;-64
2022/10/29 02:35:13;;;;;;;8.33;4.90;;;;;;;10.95;89.81;99261.58;1685872;85;25481;-64
2022/10/29 02:37:39;;;;;;;9.95;5.62;;;;;;;10.98;89.64;99262.34;1685691;83;25452;-64
2022/10/29 02:40:08;;;;;;;8.20;4.95;;;;;;;11.02;89.51;99277.91;1685625;85;26577;-64
2022/10/29 02:42:34;;;;;;;7.35;4.62;;;;;;;11.04;89.30;99266.08;1685935;85;25457;-64
2022/10/29 02:45:00;;;;;;;8.20;5.08;;;;;;;11.07;89.32;99267.40;1686146;85;27516;-64
2022/10/29 02:47:27;;;;;;;7.67;4.90;;;;;;;11.09;89.23;99257.50;1685637;83;25611;-64
2022/10/29 02:49:53;;;;;;;7.60;5.22;;;;;;;11.07;89.14;99253.69;1685826;85;25635;-64
2022/10/29 02:52:19;;;;;;;9.60;4.75;;;;;;;11.09;89.12;99252.02;1685622;84;26495;-64
2022/10/29 02:54:45;;;;;;;8.43;5.05;;;;;;;11.09;89.22;99261.61;1685590;85;25628;-63
2022/10/29 02:57:11;;;;;;;8.00;5.40;;;;;;;11.08;89.11;99261.37;1685696;84;27410;-64
2022/10/29 02:59:37;;;;;;;6.72;4.45;;;;;;;11.09;89.10;99241.04;1685939;84;25611;-64
2022/10/29 03:02:03;;;;;;;9.23;5.30;;;;;;;11.07;89.33;99241.89;1686075;85;25457;-64
2022/10/29 03:04:30;;;;;;;8.68;5.40;;;;;;;11.08;89.45;99236.69;1685506;85;25799;-64
2022/10/29 03:06:56;;;;;;;11.00;6.53;;;;;;;11.09;89.28;99242.41;1685583;84;25618;-64
2022/10/29 03:09:22;;;;;;;8.28;5.67;;;;;;;11.11;89.22;99255.28;1685590;85;27383;-64
2022/10/29 03:11:48;;;;;;;9.00;5.67;;;;;;;11.11;89.49;99249.79;1685370;85;25634;-64
2022/10/29 03:14:15;;;;;;;9.78;5.80;;;;;;;11.14;89.20;99240.95;1685549;85;25714;-64
2022/10/29 03:16:41;;;;;;;10.65;6.37;;;;;;;11.15;89.13;99244.77;1685894;84;25604;-64
2022/10/29 03:19:07;;;;;;;11.95;6.15;;;;;;;11.17;89.14;99253.49;1686393;85;25563;-64
2022/10/29 03:21:33;;;;;;;10.53;6.67;;;;;;;11.17;89.10;99253.49;1685655;85;28291;-64
2022/10/29 03:23:59;;;;;;;13.68;7.45;;;;;;;11.21;89.29;99252.89;1685421;85;27230;-64
2022/10/29 03:26:25;;;;;;;12.78;7.33;;;;;;;11.23;89.05;99256.15;1685866;85;25516;-64
2022/10/29 03:28:51;;;;;;;13.48;8.38;;;;;;;11.23;89.19;99255.57;1685891;84;25744;-64
2022/10/29 03:31:18;;;;;;;13.55;8.38;;;;;;;11.24;89.02;99250.36;1685936;84;25463;-64
2022/10/29 03:33:44;;;;;;;13.13;7.87;;;;;;;11.25;89.19;99262.13;1685564;85;27446;-64
2022/10/29 03:36:10;;;;;;;15.00;9.05;;;;;;;11.23;89.10;99266.55;1685856;85;25623;-64
2022/10/29 03:38:36;;;;;;;16.70;10.03;;;;;;;11.22;89.28;99250.39;1685493;85;25632;-64
2022/10/29 03:41:07;;;;;;;12.05;7.40;;;;;;;11.22;89.38;99244.90;1685567;85;25770;-64
2022/10/29 03:43:31;;;;;;;12.98;8.95;;;;;;;11.23;89.62;99247.92;1685367;85;25429;-64
2022/10/29 03:45:57;;;;;;;14.75;9.15;;;;;;;11.22;89.80;99251.21;1685916;85;27355;-64
2022/10/29 03:48:24;;;;;;;14.30;8.98;;;;;;;11.23;89.67;99254.20;1710310;83;25619;-64
2022/10/29 03:51:00;;;;;;;16.80;9.15;;;;;;;11.25;89.57;99252.52;1711935;83;25606;-64
2022/10/29 03:53:28;;;;;;;14.95;9.25;;;;;;;11.23;89.98;99254.20;1712232;83;25833;-64
2022/10/29 03:55:56;;;;;;;15.30;8.75;;;;;;;11.23;89.96;99254.78;1712361;83;25421;-64
2022/10/29 03:58:23;;;;;;;16.42;9.30;;;;;;;11.23;90.15;99250.08;1712372;83;27533;-64
2022/10/29 04:01:02;;;;;;;12.68;7.55;;;;;;;11.25;90.13;99257.46;1712254;83;25700;-64
2022/10/29 04:03:31;;;;;;;10.58;6.85;;;;;;;11.27;90.13;99260.73;1710852;83;25458;-64
2022/10/29 04:06:01;;;;;;;12.13;7.12;;;;;;;11.28;90.33;99269.75;1712365;83;25694;-64
2022/10/29 04:08:28;;;;;;;13.65;7.87;;;;;;;11.29;90.20;99268.08;1712437;83;25696;-64
2022/10/29 04:10:54;;;;;;;13.03;8.30;;;;;;;11.26;90.32;99287.89;1712346;83;27463;-64
2022/10/29 04:13:21;;;;;;;12.25;6.80;;;;;;;11.27;90.39;99277.73;1712309;83;25609;-64
2022/10/29 04:15:47;;;;;;;11.93;7.30;;;;;;;11.24;90.62;99272.30;1712127;83;25606;-64
2022/10/29 04:18:13;;;;;;;12.73;6.97;;;;;;;11.26;90.44;99268.68;1712093;83;25821;-64
2022/10/29 04:20:40;;;;;;;11.90;7.67;;;;;;;11.23;90.59;99265.75;1712107;83;25685;-64
2022/10/29 04:23:07;;;;;;;13.85;8.00;;;;;;;11.23;90.82;99263.80;1712016;83;26862;-64
2022/10/29 04:25:33;;;;;;;14.07;7.37;;;;;;;11.23;90.60;99272.03;1712361;83;25503;-64
2022/10/29 04:27:59;;;;;;;13.30;7.75;;;;;;;11.25;90.78;99271.18;1712061;83;25469;-64
2022/10/29 04:30:25;;;;;;;12.78;7.70;;;;;;;11.24;90.93;99269.56;1705353;83;25772;-64
2022/10/29 04:32:57;;;;;;;14.23;7.67;;;;;;;11.26;90.72;99265.14;1709141;83;25661;-64
2022/10/29 04:35:25;;;;;;;12.53;7.47;;;;;;;11.28;90.73;99267.01;1705153;84;27465;-64
2022/10/29 04:37:54;;;;;;;12.40;6.40;;;;;;;11.32;90.69;99267.23;1703938;84;25730;-64
2022/10/29 04:40:22;;;;;;;13.48;8.25;;;;;;;11.35;90.59;99274.30;1688408;85;25460;-64
2022/10/29 04:42:49;;;;;;;14.20;8.48;;;;;;;11.38;90.50;99281.93;1703931;84;25780;-64
2022/10/29 04:45:16;;;;;;;12.47;6.97;;;;;;;11.40;90.62;99267.33;1688886;85;25445;-64
2022/10/29 04:47:42;;;;;;;11.63;6.00;;;;;;;11.43;90.60;99248.09;1720797;82;27412;-64
2022/10/29 04:50:09;;;;;;;12.93;7.15;;;;;;;11.45;90.68;99243.09;1705906;83;25609;-64
2022/10/29 04:52:35;;;;;;;10.03;5.67;;;;;;;11.47;90.60;99236.75;1735374;82;25665;-65
2022/10/29 04:55:02;;;;;;;12.03;6.87;;;;;;;11.47;90.64;99223.02;1735152;82;25888;-64
2022/10/29 04:57:28;;;;;;;12.05;6.80;;;;;;;11.48;90.56;99208.17;1735200;82;25659;-64
2022/10/29 04:59:54;;;;;;;10.75;6.75;;;;;;;11.50;90.45;99199.63;1735437;81;27467;-64
2022/10/29 05:02:20;;;;;;;13.00;7.05;;;;;;;11.52;90.52;99208.38;1735609;82;25629;-64
2022/10/29 05:04:46;;;;;;;12.60;6.87;;;;;;;11.52;90.61;99218.78;1734983;82;25456;-64
2022/10/29 05:07:12;;;;;;;11.20;6.97;;;;;;;11.52;90.62;99207.80;1735400;82;25729;-64
2022/10/29 05:09:38;;;;;;;10.93;6.62;;;;;;;11.54;90.51;99222.59;1735359;82;25445;-64
2022/10/29 05:12:07;;;;;;;10.28;6.08;;;;;;;11.57;90.45;99226.68;1735024;82;27472;-64
2022/10/29 05:14:33;;;;;;;12.05;7.35;;;;;;;11.59;90.44;99234.03;1731462;82;25942;-64
2022/10/29 05:16:59;;;;;;;12.35;7.00;;;;;;;11.58;90.67;99242.84;1735351;82;25645;-64
2022/10/29 05:19:26;;;;;;;13.28;6.47;;;;;;;11.57;90.63;99260.41;1735448;82;25749;-64
2022/10/29 05:21:52;;;;;;;11.05;6.53;;;;;;;11.54;90.57;99272.83;1735393;82;25413;-64
2022/10/29 05:24:19;;;;;;;15.03;6.60;;;;;;;11.55;90.96;99269.53;1735096;82;45341;-64
2022/10/29 05:26:45;;;;;;;11.75;7.03;;;;;;;11.53;90.75;99273.95;1735300;82;25827;-65
2022/10/29 05:29:12;;;;;;;11.28;7.40;;;;;;;11.52;90.88;99286.03;1735052;82;25618;-65
2022/10/29 05:31:38;;;;;;;11.53;7.22;;;;;;;11.54;90.78;99269.25;1735281;82;25747;-64
2022/10/29 05:34:04;;;;;;;12.85;8.08;;;;;;;11.53;90.97;99273.12;1735122;82;25639;-64
2022/10/29 05:36:30;;;;;;;11.08;7.00;;;;;;;11.55;90.73;99280.52;1735132;82;27389;-64
2022/10/29 05:38:57;;;;;;;12.82;8.00;;;;;;;11.54;90.89;99276.94;1735317;82;26084;-64
2022/10/29 05:41:23;;;;;;;11.93;7.33;;;;;;;11.54;90.99;99276.12;1735024;82;25638;-64
2022/10/29 05:43:50;;;;;;;12.68;8.10;;;;;;;11.55;90.88;99273.06;1734928;82;25721;-64
2022/10/29 05:46:16;;;;;;;10.05;5.87;;;;;;;11.57;90.79;99265.90;1735432;82;25444;-64
2022/10/29 05:48:42;;;;;;;11.30;7.50;;;;;;;11.58;91.10;99270.84;1735180;82;27382;-64
2022/10/29 05:51:09;;;;;;;15.05;7.30;;;;;;;11.57;90.85;99263.73;1735048;82;25469;-64
2022/10/29 05:53:35;;;;;;;13.98;8.50;;;;;;;11.59;91.06;99254.06;1735114;82;25480;-64
2022/10/29 05:56:02;;;;;;;14.60;8.13;;;;;;;11.61;90.84;99262.82;1734977;82;25623;-64
2022/10/29 05:58:28;;;;;;;13.28;8.38;;;;;;;11.61;90.91;99260.63;1735389;82;25555;-64
2022/10/29 06:00:54;;;;;;;15.95;8.40;;;;;;;11.60;91.15;99259.01;1734948;81;27409;-64
2022/10/29 06:03:22;;;;;;;10.30;6.10;;;;;;;11.59;91.15;99261.48;1734990;81;25492;-64
2022/10/29 06:05:49;;;;;;;14.18;9.38;;;;;;;11.61;91.31;99267.48;1735038;82;25432;-64
2022/10/29 06:08:17;;;;;;;16.30;8.63;;;;;;;11.61;91.20;99280.66;1735343;82;25901;-64
2022/10/29 06:10:43;;;;;;;15.98;8.13;;;;;;;11.62;91.41;99273.22;1732516;82;25594;-65
2022/10/29 06:13:12;;;;;;;15.13;8.43;;;;;;;11.65;91.56;99262.45;1732206;82;27905;-64
2022/10/29 06:15:39;;;;;;;13.40;8.13;;;;;;;11.65;91.53;99251.47;1736134;82;25738;-64
2022/10/29 06:18:05;;;;;;;14.13;7.80;;;;;;;11.65;91.74;99256.96;1721851;82;25750;-64
2022/10/29 06:20:32;;;;;;;18.15;10.58;;;;;;;11.69;91.92;99270.08;1727269;82;25680;-64
2022/10/29 06:22:58;;;;;;;13.78;7.95;;;;;;;11.73;91.84;99262.30;1703349;83;25408;-64
2022/10/29 06:25:26;;;;;;;15.18;8.63;;;;;;;11.76;92.03;99281.45;1739528;82;27374;-64
2022/10/29 06:28:05;;;;;;;15.75;9.13;;;;;;;11.77;92.24;99289.39;1742202;82;25613;-64
2022/10/29 06:30:34;;;;;;;16.07;9.88;;;;;;;11.83;92.25;99296.16;1742518;82;25623;-64
2022/10/29 06:33:03;;;;;;;16.85;9.33;;;;;;;11.89;92.01;99294.94;1742491;82;25862;-65
2022/10/29 06:35:30;;;;;;;14.13;8.73;;;;;;;11.94;92.05;99300.30;1742407;82;25616;-64
2022/10/29 06:37:56;;;;;;;18.45;9.23;;;;;;;12.02;91.71;99298.22;1742444;82;27442;-65
2022/10/29 06:40:22;;;;;;;15.40;8.63;;;;;;;12.11;91.55;99299.70;1746401;82;25520;-64
2022/10/29 06:42:49;;;;;;;17.65;9.30;;;;;;;12.19;91.19;99302.83;1742510;82;25479;-64
2022/10/29 06:45:16;;;;;;;16.75;8.95;;;;;;;12.27;91.00;99302.91;1742009;81;25729;-64
2022/10/29 06:47:44;;;;;;;15.03;8.58;;;;;;;12.35;90.73;99309.61;1742215;82;25468;-64
2022/10/29 06:50:13;;;;;;;16.12;9.08;;;;;;;12.38;90.26;99306.83;1742033;82;27386;-64
2022/10/29 06:52:39;;;;;;;14.75;8.53;;;;;;;12.41;90.11;99307.00;1742022;82;25484;-64
2022/10/29 06:55:07;;;;;;;15.48;9.48;;;;;;;12.46;89.92;99312.94;1742441;82;25432;-64
2022/10/29 06:57:34;;;;;;;14.18;8.90;;;;;;;12.46;89.82;99308.82;1742266;82;25881;-64
2022/10/29 07:00:01;;;;;;;15.72;9.23;;;;;;;12.48;89.63;99316.20;1742238;82;25440;-64
2022/10/29 07:02:27;;;;;;;17.27;9.85;;;;;;;12.47;89.53;99316.52;1742082;82;27457;-64
2022/10/29 07:04:53;;;;;;;18.15;9.68;;;;;;;12.47;89.62;99324.20;1742471;82;25682;-64
2022/10/29 07:07:20;;;;;;;14.45;8.18;;;;;;;12.52;89.49;99315.83;1742486;81;25633;-64
2022/10/29 07:09:46;;;;;;;20.00;12.50;;;;;;;12.54;89.06;99319.09;1741949;82;25764;-64
2022/10/29 07:12:12;;;;;;;18.92;10.72;;;;;;;12.54;89.23;99321.02;1742098;82;25615;-64
2022/10/29 07:14:39;;;;;;;18.05;10.20;;;;;;;12.58;89.18;99328.09;1742780;81;27320;-64
2022/10/29 07:17:05;;;;;;;17.32;11.05;;;;;;;12.60;89.08;99337.64;1741974;81;25641;-64
2022/10/29 07:19:31;;;;;;;18.07;11.20;;;;;;;12.63;89.33;99337.02;1742858;81;25676;-64
2022/10/29 07:21:57;;;;;;;17.90;9.83;;;;;;;12.72;89.20;99348.09;1742011;81;25746;-64
2022/10/29 07:24:24;;;;;;;19.70;10.00;;;;;;;12.82;89.08;99350.34;1742008;82;25688;-64
2022/10/29 07:26:50;;;;;;;15.63;9.65;;;;;;;12.81;88.46;99350.91;1742073;82;27412;-64
2022/10/29 07:29:16;;;;;;;18.07;10.88;;;;;;;12.83;88.48;99347.84;1741983;81;25650;-64
2022/10/29 07:31:43;;;;;;;20.17;10.55;;;;;;;12.87;88.52;99357.91;1742051;82;25697;-64
2022/10/29 07:34:09;;;;;;;18.00;9.85;;;;;;;12.89;88.35;99350.72;1742310;82;25879;-64
2022/10/29 07:36:35;;;;;;;18.23;10.85;;;;;;;12.87;88.13;99351.61;1742361;82;25636;-64
2022/10/29 07:39:03;;;;;;;13.90;9.63;;;;;;;12.88;88.28;99344.42;1742260;82;28212;-64
2022/10/29 07:41:30;;;;;;;17.00;10.30;;;;;;;12.89;87.94;99341.09;1742136;82;25433;-64
2022/10/29 07:43:57;;;;;;;16.02;10.40;;;;;;;12.88;87.89;99350.48;1742263;82;25625;-64
2022/10/29 07:46:24;;;;;;;17.07;10.30;;;;;;;12.88;88.03;99345.80;1742156;82;25742;-64
2022/10/29 07:48:50;;;;;;;17.42;11.33;;;;;;;12.89;88.00;99347.41;1750401;81;25429;-64
2022/10/29 07:51:16;;;;;;;21.75;12.28;;;;;;;12.90;88.00;99349.03;1756713;81;27665;-64
2022/10/29 07:53:43;;;;;;;19.10;11.68;;;;;;;12.89;88.17;99346.04;1753871;81;25468;-64
2022/10/29 07:56:09;;;;;;;19.52;11.95;;;;;;;12.95;88.10;99350.05;1750955;82;25488;-65
2022/10/29 07:58:35;;;;;;;18.25;11.63;;;;;;;13.02;88.09;99348.50;1751531;82;26098;-65
2022/10/29 08:01:02;;;;;;;20.35;11.73;;;;;;;13.20;87.95;99351.90;1751752;81;25539;-64
2022/10/29 08:03:28;;;;;;;18.60;10.65;;;;;;;13.36;87.36;99350.38;1751213;82;27577;-65
2022/10/29 08:05:58;;;;;;;16.17;10.63;;;;;;;13.52;86.93;99354.95;1750902;82;25492;-65
2022/10/29 08:08:25;;;;;;;15.98;10.53;;;;;;;13.66;86.04;99361.75;1751036;82;25686;-65
2022/10/29 08:10:51;;;;;;;16.00;10.28;;;;;;;13.82;85.80;99358.58;1750865;81;25734;-64
2022/10/29 08:13:17;;;;;;;16.20;10.82;;;;;;;14.03;85.63;99362.94;1750953;82;25680;-65
2022/10/29 08:15:46;;;;;;;14.70;9.93;;;;;;;14.17;84.13;99353.72;1750946;82;29590;-64
2022/10/29 08:18:16;;;;;;;15.50;9.53;;;;;;;14.29;84.06;99358.61;1750854;82;25463;-64
2022/10/29 08:20:43;;;;;;;15.40;10.13;;;;;;;14.45;83.00;99356.77;1751268;81;25736;-64
2022/10/29 08:23:10;;;;;;;15.85;9.18;;;;;;;14.66;82.88;99353.63;1750837;82;25751;-64
2022/10/29 08:25:40;;;;;;;13.43;8.58;;;;;;;14.88;81.96;99361.51;1751303;81;25434;-64
2022/10/29 08:28:05;;;;;;;13.30;8.00;;;;;;;15.10;81.44;99345.08;1750697;82;26031;-64
2022/10/29 08:30:32;;;;;;;14.53;8.80;;;;;;;15.52;79.80;99362.46;1750921;82;25673;-64
2022/10/29 08:32:58;;;;;;;14.40;8.15;;;;;;;15.74;79.59;99372.45;1750929;82;25654;-65
2022/10/29 08:35:25;;;;;;;13.65;8.43;;;;;;;15.99;78.39;99374.64;1750968;81;25748;-64
2022/10/29 08:37:51;;;;;;;12.98;6.67;;;;;;;16.13;76.95;99370.27;1751029;82;25629;-64
2022/10/29 08:40:35;;;;;;;9.90;7.00;;;;;;;16.31;76.49;99382.03;1751298;82;27443;-64
2022/10/29 08:43:30;;;;;;;13.18;7.53;;;;;;;16.38;74.85;99380.13;1744836;81;25475;-64
2022/10/29 08:45:57;;;;;;;11.40;7.47;;;;;;;16.57;76.33;99374.14;1751670;81;25487;-64
2022/10/29 08:48:35;;;;;;;11.73;7.78;;;;;;;16.90;73.97;99373.38;1743905;81;25821;-64
2022/10/29 08:51:06;;;;;;;13.80;7.92;;;;;;;17.12;73.89;99369.22;1726756;82;25707;-65
2022/10/29 08:53:51;;;;;;;13.93;8.18;;;;;;;17.45;73.63;99368.42;1711382;83;27472;-64
2022/10/29 08:56:22;;;;;;;11.18;6.97;;;;;;;17.85;73.37;99367.55;1710141;83;25842;-65
2022/10/29 08:59:17;;;;;;;11.15;6.97;;;;;;;18.15;70.70;99356.23;1707817;82;25473;-64
2022/10/29 09:01:44;;;;;;;13.68;7.42;;;;;;;18.31;69.61;99362.69;1709705;82;26788;-64
2022/10/29 09:04:33;;;;;;;9.10;6.58;;;;;;;18.43;70.02;99366.62;1709802;83;25418;-65
2022/10/29 09:07:16;;;;;;;13.62;8.60;;;;;;;18.68;70.06;99366.53;1710026;83;27428;-64
2022/10/29 09:09:56;;;;;;;10.93;7.22;;;;;;;18.97;68.82;99369.36;1710313;82;25742;-64
2022/10/29 09:12:49;;;;;;;10.15;7.35;;;;;;;19.21;67.31;99360.13;1708611;83;25456;-64
2022/10/29 09:15:33;;;;;;;10.63;7.20;;;;;;;19.31;66.96;99364.34;1691884;84;25959;-64
2022/10/29 09:18:28;;;;;;;9.33;6.47;;;;;;;19.53;66.94;99366.30;1692129;84;25584;-62
2022/10/29 09:21:14;;;;;;;11.10;7.42;;;;;;;19.76;64.64;99368.47;1692257;84;27489;-64
2022/10/29 09:24:16;;;;;;;10.60;7.72;;;;;;;19.82;64.72;99373.98;1691641;84;25509;-64
2022/10/29 09:27:14;;;;;;;10.03;7.30;;;;;;;19.76;64.19;99366.50;1692255;84;25646;-64
2022/10/29 09:30:05;;;;;;;11.43;6.97;;;;;;;19.71;64.44;99375.10;1691944;84;26655;-64
2022/10/29 09:32:39;;;;;;;10.38;6.70;;;;;;;19.71;63.64;99359.02;1692668;84;25699;-64
2022/10/29 09:35:18;;;;;;;10.53;6.65;;;;;;;19.83;61.99;99362.29;1691139;84;27555;-64
2022/10/29 09:37:58;;;;;;;9.13;6.10;;;;;;;19.93;62.92;99370.91;1692410;84;25535;-64
2022/10/29 09:40:40;;;;;;;10.43;6.78;;;;;;;19.94;61.24;99366.94;1690420;84;25827;-63
2022/10/29 09:43:21;;;;;;;9.68;6.75;;;;;;;20.05;61.25;99367.81;1692255;84;25896;-64
2022/10/29 09:46:07;;;;;;;9.50;6.78;;;;;;;20.15;61.93;99368.64;1691131;84;25694;-64
2022/10/29 09:49:12;;;;;;;9.73;6.42;;;;;;;20.27;60.71;99357.19;1693283;84;27394;-64
2022/10/29 09:51:59;;;;;;;10.75;7.10;;;;;;;20.44;60.80;99360.16;1713805;83;25696;-64
2022/10/29 09:54:29;;;;;;;7.97;5.30;;;;;;;20.59;60.52;99363.24;1724017;82;25571;-64
2022/10/29 09:56:58;;;;;;;8.73;6.05;;;;;;;20.63;59.47;99342.66;1723915;83;32583;-63
2022/10/29 09:59:41;;;;;;;8.63;6.53;;;;;;;20.67;59.39;99342.14;1723812;83;25626;-64
2022/10/29 10:02:28;;;;;;;10.55;6.17;;;;;;;20.78;59.20;99339.58;1720430;83;27474;-63
2022/10/29 10:04:59;;;;;;;10.08;5.80;;;;;;;21.03;59.06;99341.28;1723505;83;25491;-63
2022/10/29 10:07:26;;;;;;;8.03;5.87;;;;;;;21.27;59.91;99342.92;1723444;83;25641;-63
2022/10/29 10:10:02;;;;;;;8.48;6.42;;;;;;;21.24;57.68;99333.13;1723625;83;25927;-63
2022/10/29 10:12:45;;;;;;;9.30;5.05;;;;;;;21.15;58.24;99336.13;1723307;83;25613;-63
2022/10/29 10:15:25;;;;;;;9.53;6.08;;;;;;;20.91;57.05;99328.31;1723551;83;27483;-63
2022/10/29 10:18:05;;;;;;;7.75;5.28;;;;;;;20.71;58.79;99322.73;1723562;83;25460;-63
2022/10/29 10:20:48;;;;;;;9.05;5.15;;;;;;;20.80;57.78;99319.72;1723958;83;25424;-63
2022/10/29 10:23:45;;;;;;;8.43;5.58;;;;;;;20.83;58.50;99328.73;1722043;83;25645;-63
2022/10/29 10:26:35;;;;;;;8.18;5.60;;;;;;;20.92;58.48;99314.02;1723876;83;25424;-63
2022/10/29 10:29:18;;;;;;;8.28;5.58;;;;;;;21.08;57.68;99309.52;1719747;83;27417;-63
2022/10/29 10:31:49;;;;;;;7.75;5.25;;;;;;;21.17;56.76;99305.92;1724005;83;25648;-63
2022/10/29 10:34:25;;;;;;;8.20;5.42;;;;;;;21.16;56.96;99301.53;1723782;83;25513;-63
2022/10/29 10:36:57;;;;;;;8.18;5.72;;;;;;;21.43;57.02;99310.77;1723856;83;25657;-63
2022/10/29 10:39:37;;;;;;;8.63;6.12;;;;;;;21.77;57.26;99312.95;1723458;83;25480;-63
2022/10/29 10:42:23;;;;;;;8.85;6.25;;;;;;;21.91;56.58;99306.76;1723947;83;27581;-63
2022/10/29 10:44:54;;;;;;;8.20;6.20;;;;;;;21.89;56.26;99309.72;1723387;83;25678;-62
2022/10/29 10:47:25;;;;;;;8.00;5.53;;;;;;;22.16;55.29;99304.12;1724082;82;25499;-63
2022/10/29 10:49:52;;;;;;;7.50;5.78;;;;;;;22.10;53.30;99302.25;1723644;83;25730;-63
2022/10/29 10:52:28;;;;;;;8.53;6.10;;;;;;;22.23;54.73;99295.05;1723752;83;25414;-62
2022/10/29 10:55:09;;;;;;;7.83;5.92;;;;;;;22.23;54.98;99304.24;1722998;83;27402;-62
2022/10/29 10:58:04;;;;;;;10.13;6.15;;;;;;;22.25;54.12;99299.68;1723555;83;25443;-62
2022/10/29 11:00:38;;;;;;;10.15;6.55;;;;;;;22.18;54.12;99297.00;1724218;83;25708;-62
2022/10/29 11:03:16;;;;;;;9.38;6.40;;;;;;;22.38;54.99;99300.23;1723719;83;25813;-63
2022/10/29 11:06:09;;;;;;;7.55;5.80;;;;;;;22.40;54.31;99295.88;1722855;83;25583;-62
2022/10/29 11:08:45;;;;;;;9.00;6.67;;;;;;;22.49;53.52;99287.23;1723924;83;28308;-63
2022/10/29 11:11:35;;;;;;;7.47;5.97;;;;;;;22.67;53.83;99288.05;1723862;82;25799;-63
2022/10/29 11:14:13;;;;;;;9.20;6.42;;;;;;;22.78;52.97;99287.60;1724062;82;25475;-63
2022/10/29 11:16:55;;;;;;;8.90;6.87;;;;;;;22.86;53.36;99285.70;1716093;83;25704;-63
2022/10/29 11:19:29;;;;;;;8.00;6.30;;;;;;;22.91;51.90;99279.74;1724016;83;25455;-63
2022/10/29 11:22:29;;;;;;;10.25;7.37;;;;;;;23.05;52.84;99281.08;1723870;83;28451;-63
2022/10/29 11:25:22;;;;;;;8.73;6.37;;;;;;;23.26;53.34;99276.28;1723885;83;25859;-62
2022/10/29 11:28:24;;;;;;;8.00;6.17;;;;;;;23.19;51.60;99281.81;1723634;83;25455;-62
2022/10/29 11:31:21;;;;;;;11.50;6.60;;;;;;;23.12;51.58;99281.17;1723980;82;25685;-63
2022/10/29 11:34:04;;;;;;;8.95;6.62;;;;;;;23.01;51.66;99281.05;1722554;83;25576;-62
2022/10/29 11:36:35;;;;;;;9.43;6.83;;;;;;;23.04;52.70;99280.29;1723925;83;27460;-62
2022/10/29 11:39:09;;;;;;;8.28;5.03;;;;;;;23.21;52.77;99278.63;1723697;83;25480;-63
2022/10/29 11:41:55;;;;;;;6.72;5.75;;;;;;;23.40;50.31;99284.03;1724016;83;25712;-62
2022/10/29 11:44:21;;;;;;;8.33;6.40;;;;;;;23.33;51.15;99281.15;1723876;83;25825;-62
2022/10/29 11:47:17;;;;;;;8.33;6.15;;;;;;;23.52;51.90;99290.53;1723763;83;25441;-62
2022/10/29 11:50:06;;;;;;;6.72;5.67;;;;;;;23.66;50.34;99289.84;1717709;83;29387;-63
2022/10/29 11:52:37;;;;;;;8.85;6.30;;;;;;;23.63;49.70;99286.42;1709657;83;25484;-62